Time;durP1;ratioP1;P1;durP2;ratioP2;P2;SDS_P1;SDS_P2;PMS_P1;PMS_P2;Temp;Humidity;BMP_temperature;BMP_pressure;BME280_temperature;BME280_humidity;BME280_pressure;Samples;Min_cycle;Max_cycle;Signal;HPM_P1;HPM_P2
2021/12/17 00:00:58;;;;;;;35.25;16.95;;;;;;;8.05;93.79;104034.63;5075864;28;20025;-68
2021/12/17 00:03:35;;;;;;;30.10;16.35;;;;;;;7.99;93.22;104035.81;5076315;28;20052;-68
2021/12/17 00:06:13;;;;;;;26.65;16.00;;;;;;;7.96;93.06;104046.31;5057907;28;20027;-68
2021/12/17 00:08:42;;;;;;;25.65;15.38;;;;;;;7.90;93.20;104041.50;5057804;28;20383;-68
2021/12/17 00:11:08;;;;;;;24.63;14.13;;;;;;;7.81;93.61;104037.72;5075549;28;20511;-68
2021/12/17 00:13:35;;;;;;;25.52;13.98;;;;;;;7.83;94.45;104037.66;5057713;28;20052;-68
2021/12/17 00:16:02;;;;;;;24.13;14.13;;;;;;;7.79;93.90;104036.16;5057613;28;20531;-68
2021/12/17 00:18:40;;;;;;;26.55;13.88;;;;;;;7.76;93.95;104039.72;5057639;28;20115;-68
2021/12/17 00:48:36;;;;;;;18.23;11.45;;;;;;;7.87;92.88;104036.53;5075603;28;20055;-68
2021/12/17 00:51:54;;;;;;;19.77;11.90;;;;;;;7.85;92.30;104043.53;5074981;28;20135;-68
2021/12/17 00:54:21;;;;;;;22.17;12.23;;;;;;;7.97;93.02;104040.25;5074613;28;20109;-68
2021/12/17 00:56:51;;;;;;;25.02;12.85;;;;;;;7.90;93.05;104036.38;5074818;28;20031;-68
2021/12/17 00:59:17;;;;;;;22.33;13.00;;;;;;;7.86;93.49;104030.56;5056901;28;20040;-68
2021/12/17 01:01:43;;;;;;;23.02;12.65;;;;;;;7.87;93.93;104029.63;5074759;28;20037;-68
2021/12/17 01:04:09;;;;;;;21.10;12.30;;;;;;;7.90;93.88;104029.47;5056774;28;20111;-68
2021/12/17 01:06:35;;;;;;;22.92;13.50;;;;;;;7.89;94.00;104030.38;5074567;28;20180;-68
2021/12/17 01:09:00;;;;;;;28.23;14.05;;;;;;;7.82;93.87;104036.78;5074630;28;20391;-68
2021/12/17 01:11:26;;;;;;;26.75;13.68;;;;;;;7.84;94.36;104031.56;5074519;28;20024;-68
2021/12/17 01:13:51;;;;;;;26.67;13.45;;;;;;;7.85;93.68;104040.94;5074481;28;20025;-68
2021/12/17 01:16:18;;;;;;;26.33;13.88;;;;;;;7.88;94.12;104038.19;5056430;28;20383;-68
2021/12/17 01:21:33;;;;;;;24.92;13.35;;;;;;;7.81;93.89;104044.63;5074633;28;20352;-68
2021/12/17 01:24:10;;;;;;;19.38;12.65;;;;;;;7.88;94.04;104033.03;5056325;28;20074;-68
2021/12/17 01:38:18;;;;;;;27.80;13.57;;;;;;;7.89;94.28;104050.16;5073884;28;20034;-68
2021/12/17 01:43:10;;;;;;;21.42;13.07;;;;;;;7.87;94.42;104047.66;5074233;28;20071;-69
2021/12/17 01:45:38;;;;;;;22.70;13.80;;;;;;;7.82;94.73;104039.38;5055983;28;20021;-69
2021/12/17 01:48:09;;;;;;;23.52;13.60;;;;;;;8.00;93.51;104050.38;5055943;28;20051;-69
2021/12/17 02:01:28;;;;;;;36.25;15.10;;;;;;;7.96;93.34;104048.06;5074451;28;20093;-69
2021/12/17 02:03:55;;;;;;;29.55;17.00;;;;;;;7.95;94.31;104067.00;5073646;28;20028;-69
2021/12/17 02:06:22;;;;;;;30.33;16.65;;;;;;;8.02;93.54;104061.41;5073691;28;20483;-69
2021/12/17 02:08:49;;;;;;;30.23;16.88;;;;;;;8.04;93.84;104064.72;5073625;28;20028;-68
2021/12/17 02:32:51;;;;;;;36.22;17.77;;;;;;;8.02;94.93;104065.72;5012116;28;20041;-69
2021/12/17 02:35:30;;;;;;;34.30;18.38;;;;;;;8.01;94.34;104052.03;5042442;28;20044;-69
2021/12/17 02:37:55;;;;;;;37.33;18.67;;;;;;;8.09;94.12;104054.16;5073925;28;20028;-68
2021/12/17 02:45:49;;;;;;;42.80;20.52;;;;;;;8.09;94.56;104047.25;5074008;28;20055;-69
2021/12/17 02:48:19;;;;;;;40.65;20.52;;;;;;;8.05;94.38;104048.34;5075307;28;20096;-69
2021/12/17 02:50:52;;;;;;;36.83;19.88;;;;;;;8.13;94.26;104046.13;5077289;28;20028;-68
2021/12/17 02:53:19;;;;;;;36.58;19.30;;;;;;;8.14;94.43;104040.09;5059257;28;20038;-69
2021/12/17 02:55:49;;;;;;;42.13;20.55;;;;;;;8.03;94.61;104044.22;5076951;28;20028;-69
2021/12/17 02:58:15;;;;;;;41.58;20.88;;;;;;;7.92;95.44;104042.25;5059227;28;20028;-69
2021/12/17 03:00:42;;;;;;;40.45;20.17;;;;;;;8.00;94.67;104047.78;5077116;28;20078;-68
2021/12/17 03:03:09;;;;;;;40.83;20.73;;;;;;;8.00;95.46;104047.78;5076907;28;20032;-69
2021/12/17 03:05:39;;;;;;;42.20;20.45;;;;;;;8.08;94.78;104044.75;5076988;28;20035;-69
2021/12/17 03:08:06;;;;;;;43.45;20.58;;;;;;;8.10;94.75;104043.75;5076896;28;20035;-68
2021/12/17 03:10:31;;;;;;;43.53;19.92;;;;;;;8.11;94.86;104037.69;5077129;28;20103;-69
2021/12/17 03:13:03;;;;;;;45.22;19.42;;;;;;;8.15;94.69;104046.06;5076864;28;20060;-68
2021/12/17 03:15:42;;;;;;;40.47;18.77;;;;;;;8.11;94.82;104037.69;5077006;28;20048;-68
2021/12/17 03:25:57;;;;;;;31.85;12.80;;;;;;;8.23;93.78;104048.16;5077452;28;20056;-69
2021/12/17 03:28:23;;;;;;;29.85;12.10;;;;;;;8.20;94.77;104038.91;5058516;28;20070;-69
2021/12/17 03:30:49;;;;;;;26.98;11.60;;;;;;;8.20;94.42;104043.19;5076433;28;20051;-69
2021/12/17 03:33:14;;;;;;;23.98;10.70;;;;;;;8.15;94.22;104040.91;5076432;28;20036;-69
2021/12/17 03:35:39;;;;;;;23.05;10.38;;;;;;;8.14;93.69;104031.50;5076104;28;20069;-69
2021/12/17 03:38:06;;;;;;;23.23;10.13;;;;;;;8.05;94.27;104040.59;5058454;28;20031;-69
2021/12/17 03:40:33;;;;;;;27.52;10.13;;;;;;;8.07;94.76;104037.94;5076259;28;20141;-68
2021/12/17 03:43:10;;;;;;;25.23;10.57;;;;;;;8.11;93.76;104045.41;5058370;28;20020;-69
2021/12/17 03:45:37;;;;;;;23.17;9.98;;;;;;;7.98;94.31;104041.91;5076244;28;20020;-69
2021/12/17 03:48:03;;;;;;;21.83;9.70;;;;;;;8.03;94.89;104041.63;5076158;28;20485;-69
2021/12/17 03:50:28;;;;;;;22.50;9.18;;;;;;;7.94;94.27;104042.16;5058167;28;20119;-69
2021/12/17 03:52:54;;;;;;;19.35;8.80;;;;;;;8.02;95.05;104045.13;5076623;28;20029;-69
2021/12/17 03:55:19;;;;;;;22.10;9.27;;;;;;;7.95;94.69;104042.06;5057969;28;20031;-69
2021/12/17 03:57:44;;;;;;;19.63;8.32;;;;;;;7.81;94.31;104024.03;5076013;28;20032;-69
2021/12/17 04:00:12;;;;;;;16.95;8.23;;;;;;;7.99;94.08;104042.72;5057323;28;20029;-68
2021/12/17 04:02:38;;;;;;;16.15;7.78;;;;;;;8.03;94.04;104042.47;5057913;28;20048;-70
2021/12/17 04:05:04;;;;;;;17.33;7.82;;;;;;;7.93;94.46;104032.78;5075918;28;20020;-68
2021/12/17 04:07:29;;;;;;;14.40;7.13;;;;;;;7.87;94.24;104044.28;5058721;28;20028;-68
2021/12/17 04:09:55;;;;;;;16.10;7.45;;;;;;;8.00;94.00;104041.78;5057845;28;20386;-69
2021/12/17 04:12:26;;;;;;;14.93;6.70;;;;;;;7.99;93.58;104046.13;5075773;28;20020;-70
2021/12/17 04:14:51;;;;;;;13.85;6.63;;;;;;;8.03;93.63;104047.63;5075697;28;20021;-67
2021/12/17 04:17:23;;;;;;;14.15;6.70;;;;;;;8.01;93.83;104046.03;5057889;28;20429;-70
2021/12/17 04:19:48;;;;;;;11.40;6.18;;;;;;;8.02;93.40;104045.13;5075633;28;20074;-67
2021/12/17 04:22:14;;;;;;;11.95;6.00;;;;;;;7.99;93.12;104046.13;5075605;28;20055;-68
2021/12/17 04:24:39;;;;;;;11.02;5.43;;;;;;;8.01;93.35;104052.03;5075637;28;20025;-67
2021/12/17 04:27:06;;;;;;;12.13;5.95;;;;;;;7.91;93.30;104053.47;5057502;28;20023;-67
2021/12/17 04:29:33;;;;;;;9.25;5.57;;;;;;;7.95;92.87;104044.66;5075422;28;20021;-67
2021/12/17 04:31:58;;;;;;;12.27;6.22;;;;;;;7.93;92.97;104035.34;5057592;28;20025;-67
2021/12/17 04:34:24;;;;;;;9.95;5.75;;;;;;;7.88;93.24;104041.63;5075010;28;20048;-67
2021/12/17 04:36:52;;;;;;;10.77;6.28;;;;;;;7.82;93.71;104041.13;5057271;28;20068;-68
2021/12/17 04:39:18;;;;;;;12.50;6.32;;;;;;;7.80;93.21;104040.41;5057311;28;20124;-67
2021/12/17 04:44:25;;;;;;;12.48;6.47;;;;;;;7.87;93.53;104041.69;5075119;28;20512;-67
2021/12/17 04:57:16;;;;;;;13.07;6.57;;;;;;;7.86;93.63;104045.19;5057162;28;20020;-67
2021/12/17 04:57:48;;;;;;;10.27;5.82;;;;;;;7.87;93.92;104039.94;5074855;28;20077;-67
2021/12/17 05:00:21;;;;;;;11.85;6.75;;;;;;;7.89;94.22;104047.59;5056798;28;20025;-67
2021/12/17 05:02:50;;;;;;;12.35;6.10;;;;;;;7.76;93.92;104044.88;5075348;28;20051;-67
2021/12/17 05:05:20;;;;;;;12.77;5.75;;;;;;;7.87;94.20;104039.94;5075004;28;20021;-68
2021/12/17 05:07:51;;;;;;;12.27;6.05;;;;;;;7.87;93.66;104031.41;5074611;28;20471;-68
2021/12/17 05:20:50;;;;;;;12.93;6.30;;;;;;;7.88;94.66;104039.03;5074981;28;20048;-68
2021/12/17 05:23:22;;;;;;;13.30;6.65;;;;;;;7.94;93.70;104043.00;5056422;28;20059;-68
2021/12/17 05:25:47;;;;;;;14.55;6.75;;;;;;;7.87;93.67;104046.84;5074868;28;20020;-68
2021/12/17 05:28:13;;;;;;;15.43;6.97;;;;;;;7.85;94.15;104061.53;5056252;28;20177;-68
2021/12/17 05:30:45;;;;;;;16.38;6.85;;;;;;;7.88;94.14;104051.91;5074187;28;20427;-68
2021/12/17 05:33:10;;;;;;;14.80;6.88;;;;;;;7.78;93.78;104055.09;5056283;28;20162;-68
2021/12/17 05:35:36;;;;;;;22.10;7.65;;;;;;;7.69;95.03;104038.44;5073924;28;20052;-68
2021/12/17 05:38:01;;;;;;;17.73;7.93;;;;;;;7.70;95.06;104040.09;5056117;28;20109;-68
2021/12/17 05:40:27;;;;;;;17.88;7.60;;;;;;;7.74;94.61;104056.19;5074510;28;20487;-68
2021/12/17 05:42:55;;;;;;;14.30;6.93;;;;;;;7.82;94.64;104054.81;5073924;28;20471;-68
2021/12/17 05:45:32;;;;;;;16.50;7.03;;;;;;;7.80;94.72;104058.44;5055971;28;20022;-68
2021/12/17 05:47:57;;;;;;;16.33;7.28;;;;;;;7.80;94.60;104055.84;5074517;28;20064;-68
2021/12/17 05:50:22;;;;;;;13.05;6.82;;;;;;;7.82;94.59;104057.41;5055911;28;20430;-68
2021/12/17 05:52:49;;;;;;;13.57;6.25;;;;;;;7.66;94.24;104065.19;5073832;28;20020;-68
2021/12/17 05:55:15;;;;;;;14.23;6.20;;;;;;;7.58;94.77;104030.50;5055742;28;20464;-68
2021/12/17 05:57:40;;;;;;;14.25;6.72;;;;;;;7.74;94.12;104061.31;5055840;28;20024;-68
2021/12/17 06:00:06;;;;;;;16.67;6.90;;;;;;;7.74;94.74;104063.91;5073858;28;20059;-68
2021/12/17 06:02:31;;;;;;;17.33;6.80;;;;;;;7.77;94.46;104045.69;5056367;28;20035;-68
2021/12/17 06:04:57;;;;;;;13.70;6.60;;;;;;;7.87;94.42;104072.59;5055795;28;20029;-68
2021/12/17 06:07:27;;;;;;;15.32;6.90;;;;;;;7.89;94.23;104063.88;5073694;28;20028;-68
2021/12/17 06:09:53;;;;;;;14.55;7.30;;;;;;;7.88;94.32;104061.38;5055605;28;20364;-68
2021/12/17 06:12:18;;;;;;;18.23;7.28;;;;;;;7.90;94.17;104068.09;5055663;28;20024;-68
2021/12/17 06:14:44;;;;;;;14.38;6.93;;;;;;;7.94;93.98;104070.47;5073824;28;20020;-69
2021/12/17 06:17:09;;;;;;;15.10;6.40;;;;;;;7.80;94.47;104068.72;5055524;28;20510;-68
2021/12/17 06:19:34;;;;;;;14.70;7.15;;;;;;;7.77;94.28;104062.00;5073536;28;20066;-68
2021/12/17 06:21:59;;;;;;;15.25;6.72;;;;;;;7.81;94.64;104073.78;5055092;28;20012;-68
2021/12/17 06:24:25;;;;;;;14.82;6.88;;;;;;;7.85;93.67;104077.84;5055448;28;20031;-69
2021/12/17 06:26:51;;;;;;;16.83;6.85;;;;;;;7.87;94.62;104073.41;5055433;28;20032;-68
2021/12/17 06:29:16;;;;;;;13.05;6.95;;;;;;;7.87;94.62;104072.59;5073400;28;20047;-69
2021/12/17 06:31:42;;;;;;;14.48;6.90;;;;;;;7.94;94.31;104073.06;5055643;28;20102;-67
2021/12/17 06:34:07;;;;;;;15.30;6.20;;;;;;;7.84;93.49;104072.78;5055770;28;20056;-69
2021/12/17 06:36:33;;;;;;;11.82;6.35;;;;;;;7.83;94.29;104082.25;5073640;28;20069;-68
2021/12/17 06:38:58;;;;;;;14.23;6.22;;;;;;;7.76;94.75;104080.94;5073632;28;20032;-69
2021/12/17 06:41:23;;;;;;;14.80;6.38;;;;;;;7.58;94.39;104089.69;5073333;28;20104;-69
2021/12/17 06:43:48;;;;;;;16.27;6.80;;;;;;;7.78;94.69;104089.41;5073296;28;20029;-69
2021/12/17 06:48:55;;;;;;;11.77;6.45;;;;;;;7.74;94.07;104087.06;5073980;28;20120;-68
2021/12/17 06:57:47;;;;;;;15.55;6.78;;;;;;;7.53;95.23;104089.13;5073148;28;20530;-69
2021/12/17 07:00:07;;;;;;;12.35;6.10;;;;;;;7.64;95.34;104086.78;5073038;28;20035;-69
2021/12/17 07:10:39;;;;;;;12.88;6.28;;;;;;;7.76;94.94;104093.78;5073445;28;20051;-68
2021/12/17 07:21:21;;;;;;;15.90;6.50;;;;;;;7.79;95.00;104103.91;5073079;28;20165;-68
2021/12/17 07:24:04;;;;;;;;;;;;;;;7.98;94.77;104101.13;5055176;28;20032;-68
2021/12/17 07:30:59;;;;;;;13.05;6.53;;;;;;;8.02;94.02;104107.75;5073400;28;20043;-68
2021/12/17 07:32:29;;;;;;;12.75;5.90;;;;;;;8.07;93.39;104108.31;5072672;28;20039;-68
2021/12/17 07:39:48;;;;;;;12.48;6.15;;;;;;;7.94;94.08;104097.09;5076628;28;20089;-68
2021/12/17 07:42:13;;;;;;;11.93;6.00;;;;;;;7.89;93.60;104091.38;5076805;28;20514;-68
2021/12/17 07:44:39;;;;;;;16.80;6.47;;;;;;;7.97;94.20;104094.34;5076185;28;20020;-68
2021/12/17 07:47:04;;;;;;;11.95;5.68;;;;;;;8.07;93.15;104097.19;5076385;28;20077;-68
2021/12/17 07:49:29;;;;;;;13.65;6.28;;;;;;;8.11;93.04;104091.78;5076163;28;20025;-68
2021/12/17 07:51:55;;;;;;;11.23;5.68;;;;;;;8.03;92.67;104109.44;5076096;28;20024;-68
2021/12/17 07:54:20;;;;;;;11.90;5.80;;;;;;;8.05;92.94;104105.00;5075840;28;20025;-68
2021/12/17 07:56:45;;;;;;;10.50;5.38;;;;;;;8.05;92.59;104104.19;5075759;28;20475;-69
2021/12/17 07:59:12;;;;;;;13.15;6.18;;;;;;;7.89;93.17;104107.66;5076387;28;20024;-69
2021/12/17 08:01:38;;;;;;;12.57;5.90;;;;;;;7.96;93.81;104104.72;5075950;28;20020;-69
2021/12/17 08:04:05;;;;;;;13.98;6.03;;;;;;;8.06;92.90;104098.94;5057762;28;20115;-68
2021/12/17 08:06:31;;;;;;;15.85;6.63;;;;;;;8.03;93.29;104114.59;5057958;28;20020;-68
2021/12/17 08:08:56;;;;;;;11.43;5.68;;;;;;;8.02;92.86;104112.09;5057953;28;20452;-68
2021/12/17 08:11:22;;;;;;;14.93;6.30;;;;;;;8.07;93.16;104112.66;5057847;28;20529;-68
2021/12/17 08:13:52;;;;;;;13.07;6.10;;;;;;;8.12;93.20;104113.22;5057771;28;20024;-68
2021/12/17 08:32:06;;;;;;;14.48;6.32;;;;;;;8.17;93.46;104118.09;5076215;28;20494;-69
2021/12/17 08:34:32;;;;;;;14.40;6.50;;;;;;;8.27;93.39;104116.66;5075018;28;20041;-67
2021/12/17 08:36:58;;;;;;;12.40;6.30;;;;;;;8.30;93.16;104111.31;5075301;28;20028;-67
2021/12/17 08:39:25;;;;;;;14.10;6.30;;;;;;;8.40;92.94;104116.78;5075035;28;20150;-68
2021/12/17 08:41:53;;;;;;;13.07;6.65;;;;;;;8.41;91.66;104133.91;5075012;28;20055;-69
2021/12/17 08:44:18;;;;;;;13.18;6.47;;;;;;;8.41;92.42;104129.59;5057041;28;20039;-68
2021/12/17 08:46:43;;;;;;;13.30;6.15;;;;;;;8.27;92.85;104125.19;5056576;28;20119;-69
2021/12/17 08:49:10;;;;;;;12.95;6.55;;;;;;;8.28;92.59;104126.03;5056777;28;20062;-68
2021/12/17 08:51:35;;;;;;;13.32;6.40;;;;;;;8.38;92.25;104124.56;5074880;28;20074;-69
2021/12/17 08:54:01;;;;;;;16.95;6.25;;;;;;;8.44;92.42;104126.00;5056618;28;20024;-70
2021/12/17 08:56:34;;;;;;;14.27;6.28;;;;;;;8.40;92.22;104129.66;5056750;28;20509;-69
2021/12/17 09:02:22;;;;;;;12.40;6.40;;;;;;;8.40;91.77;104120.19;5074905;28;20043;-69
2021/12/17 09:04:48;;;;;;;13.95;6.78;;;;;;;8.52;91.85;104126.38;5056766;28;20467;-69
2021/12/17 09:07:13;;;;;;;12.68;5.75;;;;;;;8.57;92.05;104126.91;5056476;28;20026;-70
2021/12/17 09:09:39;;;;;;;13.20;6.93;;;;;;;8.47;91.80;104113.75;5074070;28;20032;-69
2021/12/17 09:12:05;;;;;;;13.10;6.53;;;;;;;8.51;91.43;104129.84;5075285;28;20024;-69
2021/12/17 09:14:30;;;;;;;15.98;6.18;;;;;;;8.58;91.67;104134.56;5074643;28;20074;-68
2021/12/17 09:16:56;;;;;;;10.80;5.82;;;;;;;8.59;91.71;104130.22;5074384;28;20031;-68
2021/12/17 09:19:22;;;;;;;13.10;6.15;;;;;;;8.46;91.51;104132.72;5056636;28;20360;-68
2021/12/17 09:21:48;;;;;;;13.52;6.32;;;;;;;8.47;92.34;104136.13;5056320;28;20115;-67
2021/12/17 09:24:14;;;;;;;12.60;6.30;;;;;;;8.62;91.70;104135.19;5074334;28;20024;-68
2021/12/17 09:26:39;;;;;;;11.63;6.03;;;;;;;8.54;90.90;104127.91;5056043;28;20382;-69
2021/12/17 09:29:05;;;;;;;11.10;6.47;;;;;;;8.57;91.14;104135.50;5074060;28;20040;-67
2021/12/17 09:31:30;;;;;;;13.88;6.28;;;;;;;8.72;91.21;104144.06;5074048;28;20024;-68
2021/12/17 09:33:56;;;;;;;13.00;6.22;;;;;;;8.58;91.98;104142.28;5073608;28;20044;-68
2021/12/17 09:36:22;;;;;;;11.10;6.30;;;;;;;8.63;91.36;104139.44;5055717;28;20488;-69
2021/12/17 09:38:49;;;;;;;11.85;6.60;;;;;;;8.77;91.00;104147.16;5073740;28;20153;-68
2021/12/17 09:41:16;;;;;;;13.18;5.65;;;;;;;8.79;90.64;104152.25;5073842;28;20065;-69
2021/12/17 09:43:42;;;;;;;11.48;6.13;;;;;;;8.67;91.48;104158.97;5055814;28;20024;-70
2021/12/17 09:46:07;;;;;;;13.63;6.57;;;;;;;8.77;91.11;104160.06;5055908;28;20089;-68
2021/12/17 09:48:35;;;;;;;13.57;6.28;;;;;;;8.66;91.66;104161.63;5073768;28;20387;-68
2021/12/17 09:54:22;;;;;;;12.25;6.20;;;;;;;8.79;91.18;104180.59;5073809;28;20035;-68
2021/12/17 09:56:48;;;;;;;10.95;5.60;;;;;;;8.71;89.50;104181.06;5055186;28;20115;-67
2021/12/17 09:59:14;;;;;;;9.55;4.93;;;;;;;8.86;89.72;104181.06;5055275;28;20085;-68
2021/12/17 10:01:42;;;;;;;10.73;5.30;;;;;;;8.74;89.71;104180.03;5073609;28;20032;-69
2021/12/17 10:04:17;;;;;;;13.70;5.30;;;;;;;9.03;89.78;104184.31;5073481;28;20026;-68
2021/12/17 10:06:43;;;;;;;9.48;5.30;;;;;;;9.01;88.74;104183.56;5073578;28;20021;-68
2021/12/17 10:09:09;;;;;;;10.65;4.85;;;;;;;9.06;89.57;104180.69;5073572;28;20029;-67
2021/12/17 10:11:35;;;;;;;13.40;4.90;;;;;;;9.08;88.84;104190.91;5055434;28;20070;-68
2021/12/17 10:14:22;;;;;;;11.27;5.10;;;;;;;9.11;89.37;104190.72;5055711;28;20051;-68
2021/12/17 10:20:41;;;;;;;10.25;4.90;;;;;;;9.04;88.76;104191.09;5073502;28;20398;-68
2021/12/17 10:23:09;;;;;;;10.38;5.18;;;;;;;9.10;89.38;104189.91;5073410;28;20028;-67
2021/12/17 10:25:42;;;;;;;10.38;5.20;;;;;;;9.20;88.89;104190.16;5073550;28;20116;-65
2021/12/17 10:28:07;;;;;;;7.13;3.70;;;;;;;9.02;88.26;104192.94;5073950;28;20091;-69
2021/12/17 10:30:39;;;;;;;8.02;3.80;;;;;;;9.06;88.00;104191.00;5055325;28;20028;-68
2021/12/17 10:33:07;;;;;;;5.30;3.10;;;;;;;8.94;86.62;104186.59;5073337;28;20024;-69
2021/12/17 10:35:34;;;;;;;6.90;3.28;;;;;;;8.86;88.51;104191.38;5073066;28;20044;-69
2021/12/17 10:38:05;;;;;;;7.93;3.70;;;;;;;9.04;88.12;104193.69;5073333;28;20391;-68
2021/12/17 10:40:35;;;;;;;9.05;3.40;;;;;;;9.03;87.71;104189.47;5055077;28;20028;-69
2021/12/17 10:43:09;;;;;;;6.13;3.15;;;;;;;8.85;88.76;104182.00;5073177;28;20051;-70
2021/12/17 10:45:43;;;;;;;5.97;3.20;;;;;;;8.86;88.22;104181.91;5054943;28;20498;-68
2021/12/17 10:51:02;;;;;;;8.05;3.88;;;;;;;8.52;89.69;104175.34;5073415;28;20552;-69
2021/12/17 10:53:28;;;;;;;7.35;3.50;;;;;;;8.47;90.25;104182.50;5055160;28;20028;-69
2021/12/17 10:59:18;;;;;;;12.18;4.20;;;;;;;8.97;88.97;104173.50;5073073;28;20154;-69
2021/12/17 11:01:58;;;;;;;7.40;3.55;;;;;;;8.91;87.70;104173.88;5054899;28;20032;-68
2021/12/17 11:04:25;;;;;;;8.68;3.95;;;;;;;8.87;89.63;104175.81;5073459;28;20029;-67
2021/12/17 11:06:53;;;;;;;10.60;4.35;;;;;;;8.76;89.31;104167.91;5072946;28;20017;-68
2021/12/17 11:09:37;;;;;;;9.15;4.72;;;;;;;8.82;89.88;104170.09;5074970;28;20475;-68
2021/12/17 11:12:14;;;;;;;;;;;;;;;8.85;89.78;104169.91;5059026;28;20416;-67
2021/12/17 11:14:41;;;;;;;11.55;4.13;;;;;;;8.83;89.74;104171.75;5059103;28;20374;-67
2021/12/17 11:17:13;;;;;;;7.03;3.88;;;;;;;8.97;88.84;104176.91;5058629;28;20035;-69
2021/12/17 11:19:39;;;;;;;9.77;4.15;;;;;;;8.92;88.84;104175.53;5076757;28;20039;-68
2021/12/17 11:22:05;;;;;;;7.88;4.00;;;;;;;8.92;88.49;104166.06;5076409;28;20034;-67
2021/12/17 11:24:34;;;;;;;8.75;3.13;;;;;;;8.74;88.08;104172.31;5058360;28;20024;-68
2021/12/17 11:27:01;;;;;;;8.23;3.58;;;;;;;8.93;87.46;104174.63;5076282;28;20042;-68
2021/12/17 11:29:26;;;;;;;5.82;2.92;;;;;;;8.89;86.73;104174.00;5058520;28;20095;-66
2021/12/17 11:31:51;;;;;;;4.65;2.85;;;;;;;8.75;85.72;104172.22;5076395;28;20399;-67
2021/12/17 11:34:18;;;;;;;5.18;3.10;;;;;;;9.09;85.85;104167.63;5058093;28;20136;-66
2021/12/17 11:36:44;;;;;;;4.30;2.58;;;;;;;8.89;86.41;104166.25;5058299;28;20467;-67
2021/12/17 11:39:21;;;;;;;4.57;2.70;;;;;;;9.13;85.50;104158.75;5076244;28;20028;-65
2021/12/17 11:42:03;;;;;;;4.80;3.00;;;;;;;9.15;85.78;104167.22;5076320;28;20032;-67
2021/12/17 11:44:39;;;;;;;5.28;3.13;;;;;;;9.18;86.12;104171.38;5058154;28;20398;-67
2021/12/17 11:47:10;;;;;;;6.60;3.60;;;;;;;9.20;85.79;104167.75;5076814;28;20048;-67
2021/12/17 11:49:54;;;;;;;7.13;3.60;;;;;;;9.31;85.81;104164.50;5076810;28;20028;-67
2021/12/17 11:52:34;;;;;;;6.13;3.13;;;;;;;9.37;85.48;104168.47;5058226;28;20038;-66
2021/12/17 11:55:34;;;;;;;6.57;3.28;;;;;;;9.37;83.82;104171.88;5075834;28;20064;-67
2021/12/17 11:58:05;;;;;;;6.63;3.30;;;;;;;9.28;84.12;104175.03;5076528;28;20039;-67
2021/12/17 12:00:30;;;;;;;8.20;3.72;;;;;;;9.20;85.50;104174.66;5058006;28;20444;-68
2021/12/17 12:03:22;;;;;;;8.65;3.88;;;;;;;9.39;84.87;104175.19;5075928;28;20067;-68
2021/12/17 12:05:49;;;;;;;6.50;3.70;;;;;;;9.32;83.84;104173.06;5076416;28;20021;-69
2021/12/17 12:08:50;;;;;;;7.18;3.72;;;;;;;9.17;84.97;104167.94;5075683;28;20028;-69
2021/12/17 12:11:21;;;;;;;7.15;3.60;;;;;;;9.19;84.23;104175.59;5057978;28;20494;-68
2021/12/17 12:13:49;;;;;;;7.57;3.80;;;;;;;9.19;84.40;104168.69;5075692;28;20047;-66
2021/12/17 12:16:27;;;;;;;5.78;3.58;;;;;;;9.29;84.24;104168.13;5057555;28;20024;-68
2021/12/17 12:22:15;;;;;;;6.82;3.78;;;;;;;9.43;84.48;104161.16;5075551;28;20438;-66
2021/12/17 12:24:40;;;;;;;5.22;3.08;;;;;;;9.49;83.15;104165.97;5075173;28;20032;-67
2021/12/17 12:27:06;;;;;;;6.53;3.33;;;;;;;9.31;83.61;104158.53;5057295;28;20020;-67
2021/12/17 12:29:31;;;;;;;5.53;3.13;;;;;;;9.62;83.68;104152.25;5075273;28;20016;-66
2021/12/17 12:32:19;;;;;;;5.22;3.17;;;;;;;9.63;82.99;104149.56;5075458;28;20020;-66
2021/12/17 12:34:44;;;;;;;5.32;3.20;;;;;;;9.62;82.40;104150.50;5075767;28;20542;-66
2021/12/17 12:37:24;;;;;;;5.18;3.22;;;;;;;9.72;83.44;104150.72;5075365;28;20021;-66
2021/12/17 12:39:53;;;;;;;5.45;3.40;;;;;;;9.68;82.78;104154.44;5057199;28;20047;-66
2021/12/17 12:42:30;;;;;;;6.18;3.15;;;;;;;9.87;82.20;104141.19;5074910;28;20111;-65
2021/12/17 12:44:55;;;;;;;5.00;3.30;;;;;;;9.69;82.84;104144.00;5075043;28;20122;-65
2021/12/17 12:47:20;;;;;;;7.10;3.25;;;;;;;9.69;82.70;104141.41;5075112;28;20091;-66
2021/12/17 12:49:56;;;;;;;5.07;3.25;;;;;;;9.65;82.10;104154.66;5075154;28;20025;-66
2021/12/17 12:52:34;;;;;;;5.43;3.40;;;;;;;9.74;83.01;104156.63;5057029;28;20028;-65
2021/12/17 12:55:03;;;;;;;9.63;3.35;;;;;;;9.65;82.27;104134.81;5074872;28;20020;-66
2021/12/17 12:57:39;;;;;;;7.40;3.25;;;;;;;9.83;83.29;104142.28;5056483;28;20028;-65
2021/12/17 13:00:10;;;;;;;7.20;3.67;;;;;;;9.83;83.16;104137.94;5056779;28;20489;-64
2021/12/17 13:02:37;;;;;;;5.20;3.35;;;;;;;9.86;83.09;104142.09;5074545;28;20028;-66
2021/12/17 13:05:06;;;;;;;6.30;3.97;;;;;;;9.88;82.46;104130.72;5074625;28;20150;-65
2021/12/17 13:07:43;;;;;;;6.15;3.80;;;;;;;9.75;82.63;104135.03;5074649;28;20099;-65
2021/12/17 13:10:12;;;;;;;5.40;3.30;;;;;;;9.57;82.86;104131.88;5056591;28;20027;-65
2021/12/17 13:12:39;;;;;;;5.72;4.00;;;;;;;9.73;83.84;104139.50;5074972;28;20032;-65
2021/12/17 13:15:51;;;;;;;6.35;3.83;;;;;;;9.75;83.13;104142.78;5074247;28;20020;-66
2021/12/17 13:24:13;;;;;;;6.22;4.18;;;;;;;9.71;83.68;104138.75;5032373;28;20056;-66
2021/12/17 13:27:06;;;;;;;6.00;3.97;;;;;;;9.62;82.60;104142.75;5069093;28;20059;-65
2021/12/17 13:29:38;;;;;;;8.68;4.75;;;;;;;9.38;84.77;104139.13;5074638;28;20478;-67
2021/12/17 13:32:05;;;;;;;7.50;4.25;;;;;;;9.58;84.78;104137.88;5073140;28;20020;-66
2021/12/17 13:34:35;;;;;;;8.07;4.70;;;;;;;9.61;84.57;104138.53;5073689;28;20045;-66
2021/12/17 13:37:16;;;;;;;7.28;4.28;;;;;;;9.38;84.55;104144.31;5073828;28;20028;-66
2021/12/17 13:39:46;;;;;;;6.75;4.15;;;;;;;9.58;84.94;104135.28;5074257;28;20028;-65
2021/12/17 13:42:16;;;;;;;8.52;4.45;;;;;;;9.63;84.12;104135.81;5074145;28;20375;-68
2021/12/17 13:44:45;;;;;;;6.80;4.22;;;;;;;9.60;84.57;104129.09;5073814;28;20028;-66
2021/12/17 13:47:15;;;;;;;8.80;4.85;;;;;;;9.67;85.29;104124.41;5073803;28;20399;-66
2021/12/17 13:50:04;;;;;;;6.65;4.25;;;;;;;9.49;84.24;104129.81;5055784;28;20020;-65
2021/12/17 13:52:32;;;;;;;6.75;4.20;;;;;;;9.64;84.38;104133.16;5047850;28;20036;-66
2021/12/17 13:54:59;;;;;;;6.97;3.95;;;;;;;9.66;84.10;104133.88;5055677;28;20036;-67
2021/12/17 13:57:28;;;;;;;6.80;4.07;;;;;;;9.65;84.19;104126.25;5073599;28;20040;-67
2021/12/17 14:00:04;;;;;;;9.20;4.32;;;;;;;9.66;84.02;104130.47;5074128;28;20036;-67
2021/12/17 14:02:34;;;;;;;9.75;4.70;;;;;;;9.65;85.01;104131.41;5073476;28;20486;-67
2021/12/17 14:05:04;;;;;;;7.50;4.75;;;;;;;9.53;85.18;104127.84;5073859;28;20032;-66
2021/12/17 14:07:31;;;;;;;8.38;5.00;;;;;;;9.47;85.94;104121.31;5073845;28;20082;-67
2021/12/17 14:09:59;;;;;;;12.38;4.60;;;;;;;9.58;85.98;104136.16;5073537;28;20050;-66
2021/12/17 14:12:30;;;;;;;10.57;5.22;;;;;;;9.52;85.61;104127.94;5073414;28;20031;-66
2021/12/17 14:15:03;;;;;;;10.85;6.00;;;;;;;9.50;85.66;104125.47;5073518;28;20460;-66
2021/12/17 14:17:33;;;;;;;10.52;4.80;;;;;;;9.32;85.47;104121.47;5073123;28;20032;-67
2021/12/17 14:20:07;;;;;;;8.45;4.88;;;;;;;9.39;85.85;104118.41;5073816;28;20020;-66
2021/12/17 14:22:35;;;;;;;10.77;5.45;;;;;;;9.40;86.42;104120.06;5073247;28;20016;-66
2021/12/17 14:25:20;;;;;;;7.43;4.68;;;;;;;9.45;85.88;104112.84;5073125;28;20043;-66
2021/12/17 14:27:46;;;;;;;10.52;5.10;;;;;;;9.41;85.90;104116.56;5073943;28;20032;-67
2021/12/17 14:30:12;;;;;;;13.93;5.40;;;;;;;9.38;85.71;104121.06;5073488;28;20099;-65
2021/12/17 14:32:46;;;;;;;11.75;5.57;;;;;;;9.36;86.16;104116.03;5073356;28;20032;-67
2021/12/17 14:35:13;;;;;;;11.80;5.93;;;;;;;9.42;86.75;104115.63;5072978;28;20068;-66
2021/12/17 14:37:54;;;;;;;11.88;5.38;;;;;;;9.29;87.71;104124.22;5073289;28;20025;-66
2021/12/17 14:40:24;;;;;;;14.00;4.72;;;;;;;9.32;87.69;104121.47;5073423;28;20028;-67
2021/12/17 14:42:51;;;;;;;7.22;4.68;;;;;;;9.22;88.00;104118.63;5055197;28;20086;-64